sensor_id;sensor_type;location;lat;lon;timestamp;pressure;altitude;pressure_sealevel;temperature;humidity
13709;BME280;54933;51.908;7.730;2023-12-20T00:00:55;100671.25;;;21.91;62.19
13709;BME280;54933;51.908;7.730;2023-12-20T00:03:20;100667.47;;;21.92;61.93
13709;BME280;54933;51.908;7.730;2023-12-20T00:05:46;100671.03;;;21.92;61.59
13709;BME280;54933;51.908;7.730;2023-12-20T00:08:12;100673.50;;;21.94;61.82
13709;BME280;54933;51.908;7.730;2023-12-20T00:10:37;100673.28;;;21.95;61.92
13709;BME280;54933;51.908;7.730;2023-12-20T00:13:02;100687.66;;;21.96;61.54
13709;BME280;54933;51.908;7.730;2023-12-20T00:15:28;100684.94;;;21.96;61.62
13709;BME280;54933;51.908;7.730;2023-12-20T00:17:53;100686.56;;;21.97;61.70
13709;BME280;54933;51.908;7.730;2023-12-20T00:20:18;100691.75;;;21.98;61.48
13709;BME280;54933;51.908;7.730;2023-12-20T00:22:43;100677.19;;;21.99;61.68
13709;BME280;54933;51.908;7.730;2023-12-20T00:25:09;100686.13;;;22.00;61.22
13709;BME280;54933;51.908;7.730;2023-12-20T00:27:34;100685.09;;;22.01;61.56
13709;BME280;54933;51.908;7.730;2023-12-20T00:29:59;100681.31;;;22.02;61.35
13709;BME280;54933;51.908;7.730;2023-12-20T00:32:25;100701.91;;;22.03;61.38
13709;BME280;54933;51.908;7.730;2023-12-20T00:34:50;100692.97;;;22.02;61.22
13709;BME280;54933;51.908;7.730;2023-12-20T00:37:15;100694.63;;;22.03;61.17
13709;BME280;54933;51.908;7.730;2023-12-20T00:39:41;100692.53;;;22.05;60.97
13709;BME280;54933;51.908;7.730;2023-12-20T00:42:06;100693.38;;;22.06;61.12
13709;BME280;54933;51.908;7.730;2023-12-20T00:44:31;100687.94;;;22.06;61.04
13709;BME280;54933;51.908;7.730;2023-12-20T00:46:57;100687.72;;;22.07;60.77
13709;BME280;54933;51.908;7.730;2023-12-20T00:49:22;100685.81;;;22.08;60.80
13709;BME280;54933;51.908;7.730;2023-12-20T00:51:47;100692.06;;;22.08;60.98
13709;BME280;54933;51.908;7.730;2023-12-20T00:54:15;100692.91;;;22.09;60.81
13709;BME280;54933;51.908;7.730;2023-12-20T00:56:40;100683.72;;;22.10;60.85
13709;BME280;54933;51.908;7.730;2023-12-20T00:59:05;100697.25;;;22.10;60.52
13709;BME280;54933;51.908;7.730;2023-12-20T01:01:31;100706.22;;;22.10;61.08
13709;BME280;54933;51.908;7.730;2023-12-20T01:03:58;100697.88;;;22.12;61.08
13709;BME280;54933;51.908;7.730;2023-12-20T01:06:23;100698.69;;;22.12;60.76
13709;BME280;54933;51.908;7.730;2023-12-20T01:08:48;100696.00;;;22.12;60.51
13709;BME280;54933;51.908;7.730;2023-12-20T01:11:13;100691.38;;;22.13;60.52
13709;BME280;54933;51.908;7.730;2023-12-20T01:13:39;100690.34;;;22.14;60.83
13709;BME280;54933;51.908;7.730;2023-12-20T01:16:04;100690.34;;;22.14;60.74
13709;BME280;54933;51.908;7.730;2023-12-20T01:18:30;100695.75;;;22.14;61.19
13709;BME280;54933;51.908;7.730;2023-12-20T01:20:55;100701.19;;;22.14;60.49
13709;BME280;54933;51.908;7.730;2023-12-20T01:23:21;100694.69;;;22.15;60.49
13709;BME280;54933;51.908;7.730;2023-12-20T01:25:46;100685.75;;;22.14;60.44
13709;BME280;54933;51.908;7.730;2023-12-20T01:28:11;100694.47;;;22.16;60.45
13709;BME280;54933;51.908;7.730;2023-12-20T01:30:37;100700.72;;;22.17;60.39
13709;BME280;54933;51.908;7.730;2023-12-20T01:33:03;100701.53;;;22.17;60.12
13709;BME280;54933;51.908;7.730;2023-12-20T01:35:28;100698.00;;;22.17;60.55
13709;BME280;54933;51.908;7.730;2023-12-20T01:37:53;100698.63;;;22.19;59.98
13709;BME280;54933;51.908;7.730;2023-12-20T01:40:22;100698.63;;;22.19;60.29
13709;BME280;54933;51.908;7.730;2023-12-20T01:42:47;100698.63;;;22.19;60.32
13709;BME280;54933;51.908;7.730;2023-12-20T01:45:12;100698.63;;;22.19;60.12
13709;BME280;54933;51.908;7.730;2023-12-20T01:47:37;100691.53;;;22.18;60.12
13709;BME280;54933;51.908;7.730;2023-12-20T01:50:05;100694.84;;;22.20;60.30
13709;BME280;54933;51.908;7.730;2023-12-20T01:52:33;100702.75;;;22.21;60.20
13709;BME280;54933;51.908;7.730;2023-12-20T01:54:59;100701.91;;;22.21;60.29
13709;BME280;54933;51.908;7.730;2023-12-20T01:57:28;100696.50;;;22.21;60.03
13709;BME280;54933;51.908;7.730;2023-12-20T01:59:53;100692.75;;;22.22;60.62
13709;BME280;54933;51.908;7.730;2023-12-20T02:02:19;100687.34;;;22.22;60.13
13709;BME280;54933;51.908;7.730;2023-12-20T02:04:44;100682.38;;;22.19;59.85
13709;BME280;54933;51.908;7.730;2023-12-20T02:07:11;100692.75;;;22.22;60.03
13709;BME280;54933;51.908;7.730;2023-12-20T02:09:36;100696.25;;;22.22;60.06
13709;BME280;54933;51.908;7.730;2023-12-20T02:12:03;100694.63;;;22.21;60.11
13709;BME280;54933;51.908;7.730;2023-12-20T02:14:28;100686.50;;;22.21;60.07
13709;BME280;54933;51.908;7.730;2023-12-20T02:16:54;100685.44;;;22.22;60.06
13709;BME280;54933;51.908;7.730;2023-12-20T02:19:19;100684.63;;;22.22;59.81
13709;BME280;54933;51.908;7.730;2023-12-20T02:21:45;100683.78;;;22.21;59.89
13709;BME280;54933;51.908;7.730;2023-12-20T02:24:10;100694.41;;;22.23;59.70
13709;BME280;54933;51.908;7.730;2023-12-20T02:26:35;100691.69;;;22.23;59.67
13709;BME280;54933;51.908;7.730;2023-12-20T02:29:01;100687.34;;;22.22;59.94
13709;BME280;54933;51.908;7.730;2023-12-20T02:31:27;100684.63;;;22.22;60.09
13709;BME280;54933;51.908;7.730;2023-12-20T02:33:52;100689.22;;;22.21;59.96
13709;BME280;54933;51.908;7.730;2023-12-20T02:36:17;100693.78;;;22.21;60.11
13709;BME280;54933;51.908;7.730;2023-12-20T02:38:43;100692.75;;;22.22;59.91
13709;BME280;54933;51.908;7.730;2023-12-20T02:41:08;100686.50;;;22.21;59.91
13709;BME280;54933;51.908;7.730;2023-12-20T02:43:33;100688.16;;;22.22;59.65
13709;BME280;54933;51.908;7.730;2023-12-20T02:45:58;100693.56;;;22.22;60.06
13709;BME280;54933;51.908;7.730;2023-12-20T02:48:24;100681.09;;;22.21;59.87
13709;BME280;54933;51.908;7.730;2023-12-20T02:50:49;100683.56;;;22.23;59.90
13709;BME280;54933;51.908;7.730;2023-12-20T02:53:14;100683.56;;;22.23;59.95
13709;BME280;54933;51.908;7.730;2023-12-20T02:55:40;100673.81;;;22.22;59.54
13709;BME280;54933;51.908;7.730;2023-12-20T02:58:05;100683.56;;;22.23;60.21
13709;BME280;54933;51.908;7.730;2023-12-20T03:00:30;100681.94;;;22.22;59.86
13709;BME280;54933;51.908;7.730;2023-12-20T03:02:55;100678.16;;;22.23;59.90
13709;BME280;54933;51.908;7.730;2023-12-20T03:05:21;100679.22;;;22.22;59.73
13709;BME280;54933;51.908;7.730;2023-12-20T03:07:46;100672.75;;;22.23;59.85
13709;BME280;54933;51.908;7.730;2023-12-20T03:10:11;100678.16;;;22.23;59.81
13709;BME280;54933;51.908;7.730;2023-12-20T03:12:36;100675.44;;;22.23;59.77
13709;BME280;54933;51.908;7.730;2023-12-20T03:15:02;100670.03;;;22.23;59.76
13709;BME280;54933;51.908;7.730;2023-12-20T03:17:27;100672.75;;;22.23;59.50
13709;BME280;54933;51.908;7.730;2023-12-20T03:19:52;100671.91;;;22.22;60.01
13709;BME280;54933;51.908;7.730;2023-12-20T03:22:18;100661.91;;;22.23;59.74
13709;BME280;54933;51.908;7.730;2023-12-20T03:24:43;100668.97;;;22.24;59.54
13709;BME280;54933;51.908;7.730;2023-12-20T03:27:08;100671.69;;;22.24;59.71
13709;BME280;54933;51.908;7.730;2023-12-20T03:29:33;100663.56;;;22.24;59.60
13709;BME280;54933;51.908;7.730;2023-12-20T03:31:59;100672.50;;;22.24;59.64
13709;BME280;54933;51.908;7.730;2023-12-20T03:34:24;100675.22;;;22.24;59.77
13709;BME280;54933;51.908;7.730;2023-12-20T03:36:49;100670.63;;;22.25;59.69
13709;BME280;54933;51.908;7.730;2023-12-20T03:39:14;100671.47;;;22.25;59.73
13709;BME280;54933;51.908;7.730;2023-12-20T03:41:40;100666.06;;;22.25;59.69
13709;BME280;54933;51.908;7.730;2023-12-20T03:44:05;100661.44;;;22.26;59.59
13709;BME280;54933;51.908;7.730;2023-12-20T03:46:30;100659.81;;;22.25;59.92
13709;BME280;54933;51.908;7.730;2023-12-20T03:48:56;100651.47;;;22.26;59.63
13709;BME280;54933;51.908;7.730;2023-12-20T03:51:22;100646.88;;;22.27;59.65
13709;BME280;54933;51.908;7.730;2023-12-20T03:53:47;100656.03;;;22.26;59.66
13709;BME280;54933;51.908;7.730;2023-12-20T03:56:12;100656.88;;;22.26;59.74
13709;BME280;54933;51.908;7.730;2023-12-20T03:58:37;100657.72;;;22.27;59.21
13709;BME280;54933;51.908;7.730;2023-12-20T04:01:03;100661.22;;;22.27;59.74
13709;BME280;54933;51.908;7.730;2023-12-20T04:03:28;100649.59;;;22.27;59.47
13709;BME280;54933;51.908;7.730;2023-12-20T04:05:53;100656.03;;;22.26;59.71
13709;BME280;54933;51.908;7.730;2023-12-20T04:08:19;100650.47;;;22.21;59.26
13709;BME280;54933;51.908;7.730;2023-12-20T04:10:45;100642.97;;;22.05;59.94
13709;BME280;54933;51.908;7.730;2023-12-20T04:13:10;100649.75;;;21.96;60.20
13709;BME280;54933;51.908;7.730;2023-12-20T04:15:35;100656.66;;;21.92;60.52
13709;BME280;54933;51.908;7.730;2023-12-20T04:18:01;100651.47;;;21.90;60.83
13709;BME280;54933;51.908;7.730;2023-12-20T04:20:26;100648.16;;;21.88;60.98
13709;BME280;54933;51.908;7.730;2023-12-20T04:22:51;100668.16;;;21.87;61.16
13709;BME280;54933;51.908;7.730;2023-12-20T04:25:16;100671.09;;;21.86;61.47
13709;BME280;54933;51.908;7.730;2023-12-20T04:27:41;100661.91;;;21.87;61.35
13709;BME280;54933;51.908;7.730;2023-12-20T04:30:07;100669.00;;;21.88;61.68
13709;BME280;54933;51.908;7.730;2023-12-20T04:32:32;100669.00;;;21.88;61.51
13709;BME280;54933;51.908;7.730;2023-12-20T04:34:58;100669.81;;;21.88;61.70
13709;BME280;54933;51.908;7.730;2023-12-20T04:37:23;100674.41;;;21.88;61.73
13709;BME280;54933;51.908;7.730;2023-12-20T04:39:49;100672.28;;;21.90;61.74
13709;BME280;54933;51.908;7.730;2023-12-20T04:42:14;100671.47;;;21.89;61.34
13709;BME280;54933;51.908;7.730;2023-12-20T04:44:39;100670.66;;;21.89;61.44
13709;BME280;54933;51.908;7.730;2023-12-20T04:47:05;100675.22;;;21.88;61.54
13709;BME280;54933;51.908;7.730;2023-12-20T04:49:30;100660.66;;;21.89;61.67
13709;BME280;54933;51.908;7.730;2023-12-20T04:51:55;100676.66;;;21.91;61.54
13709;BME280;54933;51.908;7.730;2023-12-20T04:54:21;100664.78;;;21.92;61.38
13709;BME280;54933;51.908;7.730;2023-12-20T04:56:46;100649.38;;;21.92;61.45
13709;BME280;54933;51.908;7.730;2023-12-20T04:59:12;100655.63;;;21.93;61.26
13709;BME280;54933;51.908;7.730;2023-12-20T05:01:38;100652.69;;;21.94;61.34
13709;BME280;54933;51.908;7.730;2023-12-20T05:04:03;100656.22;;;21.95;61.32
13709;BME280;54933;51.908;7.730;2023-12-20T05:06:29;100651.63;;;21.95;61.37
13709;BME280;54933;51.908;7.730;2023-12-20T05:08:54;100648.69;;;21.97;61.45
13709;BME280;54933;51.908;7.730;2023-12-20T05:11:19;100653.88;;;21.98;61.13
13709;BME280;54933;51.908;7.730;2023-12-20T05:13:44;100651.19;;;21.98;61.41
13709;BME280;54933;51.908;7.730;2023-12-20T05:16:10;100643.91;;;21.99;61.04
13709;BME280;54933;51.908;7.730;2023-12-20T05:18:35;100645.53;;;22.00;61.13
13709;BME280;54933;51.908;7.730;2023-12-20T05:21:00;100653.66;;;22.00;61.19
13709;BME280;54933;51.908;7.730;2023-12-20T05:23:26;100651.72;;;21.89;61.01
13709;BME280;54933;51.908;7.730;2023-12-20T05:25:51;100642.84;;;21.82;61.52
13709;BME280;54933;51.908;7.730;2023-12-20T05:28:16;100648.47;;;21.80;61.68
13709;BME280;54933;51.908;7.730;2023-12-20T05:30:42;100640.59;;;21.79;61.94
13709;BME280;54933;51.908;7.730;2023-12-20T05:33:07;100647.06;;;21.78;62.06
13709;BME280;54933;51.908;7.730;2023-12-20T05:35:32;100642.44;;;21.78;61.78
13709;BME280;54933;51.908;7.730;2023-12-20T05:37:58;100642.69;;;21.77;62.02
13709;BME280;54933;51.908;7.730;2023-12-20T05:40:23;100652.47;;;21.78;62.12
13709;BME280;54933;51.908;7.730;2023-12-20T05:42:48;100651.63;;;21.77;61.90
13709;BME280;54933;51.908;7.730;2023-12-20T05:45:14;100646.81;;;21.79;62.07
13709;BME280;54933;51.908;7.730;2023-12-20T05:47:40;100651.19;;;21.80;62.11
13709;BME280;54933;51.908;7.730;2023-12-20T05:50:05;100649.31;;;21.81;62.08
13709;BME280;54933;51.908;7.730;2023-12-20T05:52:30;100649.06;;;21.82;61.93
13709;BME280;54933;51.908;7.730;2023-12-20T05:54:57;100656.19;;;21.77;61.92
13709;BME280;54933;51.908;7.730;2023-12-20T05:57:26;100651.72;;;21.64;62.04
13709;BME280;54933;51.908;7.730;2023-12-20T05:59:51;100654.28;;;21.59;61.91
13709;BME280;54933;51.908;7.730;2023-12-20T06:02:16;100655.78;;;21.55;61.90
13709;BME280;54933;51.908;7.730;2023-12-20T06:04:42;100658.91;;;21.52;61.82
13709;BME280;54933;51.908;7.730;2023-12-20T06:07:08;100657.50;;;21.49;61.84
13709;BME280;54933;51.908;7.730;2023-12-20T06:09:33;100660.44;;;21.48;62.07
13709;BME280;54933;51.908;7.730;2023-12-20T06:11:58;100657.72;;;21.48;62.12
13709;BME280;54933;51.908;7.730;2023-12-20T06:14:24;100653.16;;;21.48;62.55
13709;BME280;54933;51.908;7.730;2023-12-20T06:16:49;100649.22;;;21.44;62.45
13709;BME280;54933;51.908;7.730;2023-12-20T06:19:14;100664.38;;;21.45;62.60
13709;BME280;54933;51.908;7.730;2023-12-20T06:21:40;100653.50;;;21.52;62.32
13709;BME280;54933;51.908;7.730;2023-12-20T06:24:05;100652.53;;;21.46;62.47
13709;BME280;54933;51.908;7.730;2023-12-20T06:26:30;100641.94;;;21.45;62.82
13709;BME280;54933;51.908;7.730;2023-12-20T06:28:55;100648.78;;;21.47;62.69
13709;BME280;54933;51.908;7.730;2023-12-20T06:31:21;100645.63;;;21.50;62.96
13709;BME280;54933;51.908;7.730;2023-12-20T06:33:46;100661.56;;;21.58;62.73
13709;BME280;54933;51.908;7.730;2023-12-20T06:36:12;100666.44;;;19.29;60.46
13709;BME280;54933;51.908;7.730;2023-12-20T06:38:41;100669.53;;;19.39;59.00
13709;BME280;54933;51.908;7.730;2023-12-20T06:41:07;100648.56;;;20.31;58.41
13709;BME280;54933;51.908;7.730;2023-12-20T06:43:32;100663.94;;;20.68;58.24
13709;BME280;54933;51.908;7.730;2023-12-20T06:46:00;100662.34;;;20.85;58.48
13709;BME280;54933;51.908;7.730;2023-12-20T06:48:25;100664.78;;;20.93;58.63
13709;BME280;54933;51.908;7.730;2023-12-20T06:50:50;100652.09;;;21.00;58.60
13709;BME280;54933;51.908;7.730;2023-12-20T06:53:15;100666.59;;;19.67;58.13
13709;BME280;54933;51.908;7.730;2023-12-20T06:55:41;100675.50;;;18.22;56.34
13709;BME280;54933;51.908;7.730;2023-12-20T06:58:07;100662.44;;;19.06;56.57
13709;BME280;54933;51.908;7.730;2023-12-20T07:00:32;100652.19;;;19.99;56.14
13709;BME280;54933;51.908;7.730;2023-12-20T07:02:58;100655.59;;;20.39;56.12
13709;BME280;54933;51.908;7.730;2023-12-20T07:05:24;100653.41;;;20.60;56.38
13709;BME280;54933;51.908;7.730;2023-12-20T07:07:49;100651.22;;;20.75;56.46
13709;BME280;54933;51.908;7.730;2023-12-20T07:10:14;100652.38;;;20.86;56.42
13709;BME280;54933;51.908;7.730;2023-12-20T07:12:40;100644.84;;;20.94;56.53
13709;BME280;54933;51.908;7.730;2023-12-20T07:15:05;100644.00;;;21.00;56.63
13709;BME280;54933;51.908;7.730;2023-12-20T07:17:32;100639.38;;;21.07;56.95
13709;BME280;54933;51.908;7.730;2023-12-20T07:19:58;100638.50;;;21.13;56.91
13709;BME280;54933;51.908;7.730;2023-12-20T07:22:23;100632.63;;;21.16;57.03
13709;BME280;54933;51.908;7.730;2023-12-20T07:24:48;100637.19;;;21.22;57.23
13709;BME280;54933;51.908;7.730;2023-12-20T07:27:14;100640.03;;;21.27;57.28
13709;BME280;54933;51.908;7.730;2023-12-20T07:29:40;100635.00;;;21.31;57.50
13709;BME280;54933;51.908;7.730;2023-12-20T07:32:05;100642.47;;;21.35;57.33
13709;BME280;54933;51.908;7.730;2023-12-20T07:34:31;100640.34;;;21.37;57.51
13709;BME280;54933;51.908;7.730;2023-12-20T07:36:56;100639.94;;;21.40;57.42
13709;BME280;54933;51.908;7.730;2023-12-20T07:39:21;100646.53;;;21.44;57.41
13709;BME280;54933;51.908;7.730;2023-12-20T07:41:46;100651.47;;;21.47;57.30
13709;BME280;54933;51.908;7.730;2023-12-20T07:44:12;100649.38;;;21.49;57.51
13709;BME280;54933;51.908;7.730;2023-12-20T07:46:37;100652.47;;;21.53;57.60
13709;BME280;54933;51.908;7.730;2023-12-20T07:49:04;100648.47;;;21.55;57.55
13709;BME280;54933;51.908;7.730;2023-12-20T07:51:30;100652.63;;;21.58;57.93
13709;BME280;54933;51.908;7.730;2023-12-20T07:53:55;100644.91;;;21.62;57.40
13709;BME280;54933;51.908;7.730;2023-12-20T07:56:20;100640.91;;;21.64;57.56
13709;BME280;54933;51.908;7.730;2023-12-20T07:58:46;100645.06;;;21.67;57.93
13709;BME280;54933;51.908;7.730;2023-12-20T08:01:12;100627.78;;;21.68;57.91
13709;BME280;54933;51.908;7.730;2023-12-20T08:03:38;100636.28;;;21.71;57.88
13709;BME280;54933;51.908;7.730;2023-12-20T08:06:03;100634.97;;;21.74;57.85
13709;BME280;54933;51.908;7.730;2023-12-20T08:08:29;100631.25;;;21.75;57.93
13709;BME280;54933;51.908;7.730;2023-12-20T08:10:54;100634.56;;;21.77;57.82
13709;BME280;54933;51.908;7.730;2023-12-20T08:13:19;100626.22;;;21.78;57.54
13709;BME280;54933;51.908;7.730;2023-12-20T08:15:44;100622.47;;;21.79;58.06
13709;BME280;54933;51.908;7.730;2023-12-20T08:18:10;100626.59;;;21.82;57.50
13709;BME280;54933;51.908;7.730;2023-12-20T08:20:35;100630.97;;;21.83;57.84
13709;BME280;54933;51.908;7.730;2023-12-20T08:23:00;100640.75;;;21.84;57.90
13709;BME280;54933;51.908;7.730;2023-12-20T08:25:25;100631.56;;;21.85;57.69
13709;BME280;54933;51.908;7.730;2023-12-20T08:27:51;100627.81;;;21.86;57.73
13709;BME280;54933;51.908;7.730;2023-12-20T08:30:16;100634.88;;;21.87;57.98
13709;BME280;54933;51.908;7.730;2023-12-20T08:32:49;100629.84;;;21.90;58.02
13709;BME280;54933;51.908;7.730;2023-12-20T08:35:14;100634.41;;;21.90;57.78
13709;BME280;54933;51.908;7.730;2023-12-20T08:37:40;100632.31;;;21.92;57.96
13709;BME280;54933;51.908;7.730;2023-12-20T08:40:05;100639.41;;;21.93;57.84
13709;BME280;54933;51.908;7.730;2023-12-20T08:42:31;100634.00;;;21.93;58.05
13709;BME280;54933;51.908;7.730;2023-12-20T08:44:57;100638.34;;;21.94;58.18
13709;BME280;54933;51.908;7.730;2023-12-20T08:47:23;100636.25;;;21.96;58.01
13709;BME280;54933;51.908;7.730;2023-12-20T08:49:49;100630.59;;;21.97;57.86
13709;BME280;54933;51.908;7.730;2023-12-20T08:52:14;100636.00;;;21.97;57.89
13709;BME280;54933;51.908;7.730;2023-12-20T08:54:39;100619.78;;;21.97;58.01
13709;BME280;54933;51.908;7.730;2023-12-20T08:57:04;100616.00;;;21.98;58.09
13709;BME280;54933;51.908;7.730;2023-12-20T08:59:31;100604.94;;;22.00;58.21
13709;BME280;54933;51.908;7.730;2023-12-20T09:01:57;100604.72;;;22.01;58.14
13709;BME280;54933;51.908;7.730;2023-12-20T09:04:22;100605.56;;;22.02;58.14
13709;BME280;54933;51.908;7.730;2023-12-20T09:06:47;100598.50;;;22.01;58.05
13709;BME280;54933;51.908;7.730;2023-12-20T09:09:12;100599.09;;;22.03;58.14
13709;BME280;54933;51.908;7.730;2023-12-20T09:11:41;100597.22;;;22.03;58.11
13709;BME280;54933;51.908;7.730;2023-12-20T09:14:07;100598.03;;;22.04;58.23
13709;BME280;54933;51.908;7.730;2023-12-20T09:16:32;100587.22;;;22.04;57.95
13709;BME280;54933;51.908;7.730;2023-12-20T09:18:57;100602.41;;;22.05;58.18
13709;BME280;54933;51.908;7.730;2023-12-20T09:21:23;100595.94;;;22.06;58.19
13709;BME280;54933;51.908;7.730;2023-12-20T09:23:48;100589.47;;;22.07;58.19
13709;BME280;54933;51.908;7.730;2023-12-20T09:26:13;100588.41;;;22.08;58.37
13709;BME280;54933;51.908;7.730;2023-12-20T09:28:39;100590.88;;;22.09;58.21
13709;BME280;54933;51.908;7.730;2023-12-20T09:31:05;100580.88;;;22.10;58.32
13709;BME280;54933;51.908;7.730;2023-12-20T09:33:31;100577.13;;;22.11;58.10
13709;BME280;54933;51.908;7.730;2023-12-20T09:35:57;100578.78;;;22.12;58.43
13709;BME280;54933;51.908;7.730;2023-12-20T09:38:22;100569.59;;;22.13;58.29
13709;BME280;54933;51.908;7.730;2023-12-20T09:40:47;100587.50;;;22.14;58.26
13709;BME280;54933;51.908;7.730;2023-12-20T09:43:19;100582.09;;;22.14;58.28
13709;BME280;54933;51.908;7.730;2023-12-20T09:45:46;100579.25;;;22.09;58.63
13709;BME280;54933;51.908;7.730;2023-12-20T09:48:12;100579.72;;;22.06;58.83
13709;BME280;54933;51.908;7.730;2023-12-20T09:50:40;100591.81;;;22.03;58.74
13709;BME280;54933;51.908;7.730;2023-12-20T09:53:08;100583.91;;;22.02;58.63
13709;BME280;54933;51.908;7.730;2023-12-20T09:55:35;100578.72;;;22.00;59.24
13709;BME280;54933;51.908;7.730;2023-12-20T09:58:01;100587.69;;;22.01;59.08
13709;BME280;54933;51.908;7.730;2023-12-20T10:00:26;100583.91;;;22.02;59.58
13709;BME280;54933;51.908;7.730;2023-12-20T10:02:59;100590.38;;;22.01;59.31
13709;BME280;54933;51.908;7.730;2023-12-20T10:05:29;100587.69;;;22.01;59.33
13709;BME280;54933;51.908;7.730;2023-12-20T10:07:55;100587.69;;;22.01;59.56
13709;BME280;54933;51.908;7.730;2023-12-20T10:10:20;100583.91;;;22.02;59.42
13709;BME280;54933;51.908;7.730;2023-12-20T10:13:02;100585.56;;;22.03;59.29
13709;BME280;54933;51.908;7.730;2023-12-20T10:15:27;100582.03;;;22.02;59.87
13709;BME280;54933;51.908;7.730;2023-12-20T10:17:52;100600.75;;;22.04;59.69
13709;BME280;54933;51.908;7.730;2023-12-20T10:20:19;100588.88;;;22.05;59.52
13709;BME280;54933;51.908;7.730;2023-12-20T10:22:44;100583.44;;;22.05;59.33
13709;BME280;54933;51.908;7.730;2023-12-20T10:25:11;100601.34;;;22.06;59.50
13709;BME280;54933;51.908;7.730;2023-12-20T10:27:36;100584.06;;;22.07;59.43
13709;BME280;54933;51.908;7.730;2023-12-20T10:30:02;100588.63;;;22.06;59.32
13709;BME280;54933;51.908;7.730;2023-12-20T10:32:27;100575.94;;;22.07;59.53
13709;BME280;54933;51.908;7.730;2023-12-20T10:34:55;100582.19;;;22.07;59.25
13709;BME280;54933;51.908;7.730;2023-12-20T10:37:21;100578.41;;;22.08;59.50
13709;BME280;54933;51.908;7.730;2023-12-20T10:39:52;100579.25;;;22.09;58.77
13709;BME280;54933;51.908;7.730;2023-12-20T10:42:21;100580.88;;;22.10;59.31
13709;BME280;54933;51.908;7.730;2023-12-20T10:44:47;100579.81;;;22.11;59.51
13709;BME280;54933;51.908;7.730;2023-12-20T10:47:13;100587.94;;;22.11;59.33
13709;BME280;54933;51.908;7.730;2023-12-20T10:49:39;100584.19;;;22.12;59.08
13709;BME280;54933;51.908;7.730;2023-12-20T10:52:05;100575.00;;;22.13;59.22
13709;BME280;54933;51.908;7.730;2023-12-20T10:54:31;100560.44;;;22.14;59.12
13709;BME280;54933;51.908;7.730;2023-12-20T10:56:57;100571.28;;;22.14;59.17
13709;BME280;54933;51.908;7.730;2023-12-20T10:59:24;100571.28;;;22.14;59.31
13709;BME280;54933;51.908;7.730;2023-12-20T11:01:50;100565.88;;;22.14;58.91
13709;BME280;54933;51.908;7.730;2023-12-20T11:04:20;100567.50;;;22.15;59.19
13709;BME280;54933;51.908;7.730;2023-12-20T11:07:08;100570.81;;;22.17;58.94
13709;BME280;54933;51.908;7.730;2023-12-20T11:09:41;100575.38;;;22.16;59.09
13709;BME280;54933;51.908;7.730;2023-12-20T11:12:13;100575.38;;;22.16;58.98
13709;BME280;54933;51.908;7.730;2023-12-20T11:14:50;100570.56;;;22.18;59.24
13709;BME280;54933;51.908;7.730;2023-12-20T11:17:16;100572.44;;;22.18;59.24
13709;BME280;54933;51.908;7.730;2023-12-20T11:22:24;100570.56;;;22.18;59.02
13709;BME280;54933;51.908;7.730;2023-12-20T11:24:52;100564.34;;;22.18;58.84
13709;BME280;54933;51.908;7.730;2023-12-20T11:27:19;100555.34;;;22.06;59.22
13709;BME280;54933;51.908;7.730;2023-12-20T11:29:51;100543.78;;;21.99;59.47
13709;BME280;54933;51.908;7.730;2023-12-20T11:35:16;100523.06;;;21.93;60.16
13709;BME280;54933;51.908;7.730;2023-12-20T11:37:41;100528.69;;;21.91;60.46
13709;BME280;54933;51.908;7.730;2023-12-20T11:40:15;100515.38;;;21.90;59.72
13709;BME280;54933;51.908;7.730;2023-12-20T11:42:42;100522.69;;;21.89;60.43
13709;BME280;54933;51.908;7.730;2023-12-20T11:45:16;100503.84;;;21.83;60.50
13709;BME280;54933;51.908;7.730;2023-12-20T11:47:43;100503.47;;;21.79;60.45
13709;BME280;54933;51.908;7.730;2023-12-20T11:50:10;100513.28;;;21.74;60.74
13709;BME280;54933;51.908;7.730;2023-12-20T11:52:35;100500.81;;;21.73;60.51
13709;BME280;54933;51.908;7.730;2023-12-20T11:55:01;100494.81;;;21.71;60.87
13709;BME280;54933;51.908;7.730;2023-12-20T11:57:26;100501.84;;;21.72;60.79
13709;BME280;54933;51.908;7.730;2023-12-20T11:59:52;100500.22;;;21.71;60.71
13709;BME280;54933;51.908;7.730;2023-12-20T12:02:17;100501.84;;;21.72;61.02
13709;BME280;54933;51.908;7.730;2023-12-20T12:04:42;100503.94;;;21.76;60.96
13709;BME280;54933;51.908;7.730;2023-12-20T12:07:07;100500.38;;;21.76;61.12
13709;BME280;54933;51.908;7.730;2023-12-20T12:09:33;100493.91;;;21.77;60.85
13709;BME280;54933;51.908;7.730;2023-12-20T12:11:59;100492.88;;;21.78;61.07
13709;BME280;54933;51.908;7.730;2023-12-20T12:14:24;100487.47;;;21.78;61.20
13709;BME280;54933;51.908;7.730;2023-12-20T12:16:50;100481.00;;;21.79;61.25
13709;BME280;54933;51.908;7.730;2023-12-20T12:19:26;100478.91;;;21.81;61.19
13709;BME280;54933;51.908;7.730;2023-12-20T12:22:04;100480.53;;;21.82;61.18
13709;BME280;54933;51.908;7.730;2023-12-20T12:24:32;100473.25;;;21.82;61.10
13709;BME280;54933;51.908;7.730;2023-12-20T12:26:57;100480.31;;;21.83;61.17
13709;BME280;54933;51.908;7.730;2023-12-20T12:29:23;100480.06;;;21.85;60.88
13709;BME280;54933;51.908;7.730;2023-12-20T12:31:50;100472.78;;;21.85;60.90
13709;BME280;54933;51.908;7.730;2023-12-20T12:34:15;100476.34;;;21.86;60.83
13709;BME280;54933;51.908;7.730;2023-12-20T12:36:41;100479.66;;;21.88;60.66
13709;BME280;54933;51.908;7.730;2023-12-20T12:39:06;100486.69;;;21.89;60.59
13709;BME280;54933;51.908;7.730;2023-12-20T12:41:31;100476.72;;;21.89;60.90
13709;BME280;54933;51.908;7.730;2023-12-20T12:43:57;100491.03;;;21.90;60.44
13709;BME280;54933;51.908;7.730;2023-12-20T12:46:22;100485.19;;;21.93;60.50
13709;BME280;54933;51.908;7.730;2023-12-20T12:48:47;100477.88;;;21.93;60.56